createdAt,value
2022-10-30T00:00:24.767Z,100.00
2022-10-30T00:02:58.023Z,100.00
2022-10-30T00:05:30.642Z,100.00
2022-10-30T00:08:03.113Z,100.00
2022-10-30T00:10:35.465Z,100.00
2022-10-30T00:13:08.288Z,100.00
2022-10-30T00:15:46.478Z,100.00
2022-10-30T00:18:19.467Z,100.00
2022-10-30T00:20:51.820Z,100.00
2022-10-30T00:23:24.310Z,100.00
2022-10-30T00:25:56.801Z,100.00
2022-10-30T00:28:29.182Z,100.00
2022-10-30T00:31:02.291Z,100.00
2022-10-30T00:33:34.637Z,100.00
2022-10-30T00:36:07.166Z,100.00
2022-10-30T00:38:40.349Z,100.00
2022-10-30T00:41:16.583Z,100.00
2022-10-30T00:43:49.055Z,100.00
2022-10-30T00:46:33.177Z,100.00
2022-10-30T00:49:17.768Z,100.00
2022-10-30T00:51:53.183Z,100.00
2022-10-30T00:54:25.590Z,100.00
2022-10-30T00:56:57.933Z,100.00
2022-10-30T00:59:32.729Z,100.00
2022-10-30T01:02:05.435Z,100.00
2022-10-30T01:04:39.087Z,100.00
2022-10-30T01:07:13.086Z,100.00
2022-10-30T01:09:46.821Z,100.00
2022-10-30T01:12:19.158Z,100.00
2022-10-30T01:14:58.177Z,100.00
2022-10-30T01:17:36.451Z,100.00
2022-10-30T01:20:27.788Z,100.00
2022-10-30T01:23:21.635Z,100.00
2022-10-30T01:26:06.577Z,100.00
2022-10-30T01:28:38.845Z,100.00
2022-10-30T01:31:14.491Z,100.00
2022-10-30T01:33:55.890Z,100.00
2022-10-30T01:36:40.150Z,100.00
2022-10-30T01:39:14.341Z,100.00
2022-10-30T01:42:03.347Z,100.00
2022-10-30T01:47:42.827Z,100.00
2022-10-30T01:50:24.726Z,100.00
2022-10-30T01:53:17.548Z,100.00
2022-10-30T01:56:31.385Z,100.00
2022-10-30T01:59:02.481Z,100.00
2022-10-30T02:01:37.020Z,100.00
2022-10-30T02:04:11.227Z,100.00
2022-10-30T02:07:26.378Z,100.00
2022-10-30T02:12:51.587Z,100.00
2022-10-30T02:15:24.130Z,100.00
2022-10-30T02:17:57.067Z,100.00
2022-10-30T02:20:29.800Z,100.00
2022-10-30T02:23:03.017Z,100.00
2022-10-30T02:25:35.872Z,100.00
2022-10-30T02:28:08.293Z,100.00
2022-10-30T02:30:44.139Z,100.00
2022-10-30T02:34:10.504Z,100.00
2022-10-30T02:36:44.214Z,100.00
2022-10-30T02:39:45.364Z,100.00
2022-10-30T02:42:18.180Z,100.00
2022-10-30T02:44:50.788Z,100.00
2022-10-30T02:47:37.298Z,100.00
2022-10-30T02:53:09.648Z,100.00
2022-10-30T03:03:03.593Z,100.00
2022-10-30T03:11:27.633Z,100.00
2022-10-30T03:14:02.693Z,100.00
2022-10-30T03:16:36.695Z,100.00
2022-10-30T03:19:09.906Z,100.00
2022-10-30T03:21:44.872Z,100.00
2022-10-30T03:27:26.038Z,100.00
2022-10-30T03:34:12.083Z,100.00
2022-10-30T03:37:09.386Z,100.00
2022-10-30T03:40:18.555Z,100.00
2022-10-30T03:43:23.889Z,100.00
2022-10-30T03:46:24.502Z,100.00
2022-10-30T03:49:08.525Z,100.00
2022-10-30T03:52:00.714Z,100.00
2022-10-30T04:01:15.601Z,100.00
2022-10-30T04:04:04.488Z,100.00
2022-10-30T04:06:50.098Z,100.00
2022-10-30T08:10:03.250Z,100.00
2022-10-30T08:12:36.525Z,100.00
2022-10-30T08:51:40.598Z,100.00
2022-10-30T08:54:16.330Z,100.00
2022-10-30T08:56:52.053Z,100.00
2022-10-30T09:06:46.163Z,100.00
2022-10-30T09:09:19.117Z,100.00
2022-10-30T09:12:45.835Z,100.00
2022-10-30T09:17:42.117Z,100.00
2022-10-30T09:20:14.552Z,100.00
2022-10-30T09:22:47.024Z,100.00
2022-10-30T09:25:19.911Z,100.00
2022-10-30T09:27:52.374Z,100.00
2022-10-30T09:30:24.969Z,85.59
2022-10-30T09:33:05.728Z,95.41
2022-10-30T09:35:54.292Z,85.59
2022-10-30T09:38:37.758Z,85.72
2022-10-30T09:41:45.773Z,74.95
2022-10-30T09:44:21.167Z,78.36
2022-10-30T09:47:30.382Z,71.68
2022-10-30T09:50:29.582Z,78.25
2022-10-30T09:53:02.202Z,78.05
2022-10-30T09:59:03.867Z,75.93
2022-10-30T10:02:01.464Z,70.91
2022-10-30T10:04:33.967Z,72.58
2022-10-30T10:07:35.417Z,68.63
2022-10-30T10:10:17.334Z,69.80
2022-10-30T10:12:51.157Z,77.19
2022-10-30T10:15:33.154Z,75.63
2022-10-30T10:18:18.905Z,72.02
2022-10-30T10:20:53.335Z,77.18
2022-10-30T10:23:44.574Z,79.66
2022-10-30T10:26:40.315Z,76.92
2022-10-30T10:29:20.650Z,70.85
2022-10-30T10:32:08.251Z,77.30
2022-10-30T10:34:56.241Z,70.35
2022-10-30T10:37:28.595Z,74.46
2022-10-30T10:40:32.333Z,77.12
2022-10-30T10:43:22.248Z,76.95
2022-10-30T10:46:00.901Z,77.71
2022-10-30T10:49:05.545Z,61.60
2022-10-30T10:55:07.849Z,64.31
2022-10-30T10:57:41.092Z,71.28
2022-10-30T11:00:46.106Z,64.63
2022-10-30T11:03:31.954Z,67.80
2022-10-30T11:06:34.805Z,60.88
2022-10-30T11:09:29.639Z,66.21
2022-10-30T11:12:36.489Z,66.13
2022-10-30T11:15:32.589Z,59.13
2022-10-30T11:21:17.587Z,59.83
2022-10-30T11:23:50.307Z,58.76
2022-10-30T11:26:23.125Z,63.52
2022-10-30T11:28:55.542Z,63.25
2022-10-30T11:31:44.396Z,66.71
2022-10-30T11:34:19.936Z,64.69
2022-10-30T11:37:46.499Z,66.82
2022-10-30T11:40:22.633Z,62.02
2022-10-30T11:42:54.940Z,61.42
2022-10-30T11:48:39.927Z,57.11
2022-10-30T11:51:13.304Z,58.97
2022-10-30T11:53:50.319Z,62.47
2022-10-30T11:56:53.699Z,58.62
2022-10-30T11:59:26.479Z,60.51
2022-10-30T12:02:00.419Z,65.95
2022-10-30T12:04:36.208Z,66.34
2022-10-30T12:07:20.723Z,62.41
2022-10-30T12:09:53.378Z,65.61
2022-10-30T12:12:43.983Z,65.39
2022-10-30T12:15:23.681Z,67.85
2022-10-30T12:18:00.986Z,66.44
2022-10-30T12:20:39.589Z,65.00
2022-10-30T12:23:53.446Z,64.55
2022-10-30T12:41:15.103Z,72.27
2022-10-30T14:33:32.468Z,77.89
2022-10-30T14:39:42.638Z,75.61
